sensor_id;sensor_type;location;lat;lon;timestamp;P1;durP1;ratioP1;P2;durP2;ratioP2
74293;SDS011;64044;59.904;10.738;2022-11-20T00:03:47;1.05;;;0.90;;
74293;SDS011;64044;59.904;10.738;2022-11-20T00:06:14;1.77;;;1.00;;
74293;SDS011;64044;59.904;10.738;2022-11-20T00:08:42;1.17;;;0.70;;
74293;SDS011;64044;59.904;10.738;2022-11-20T00:11:09;1.23;;;0.57;;
74293;SDS011;64044;59.904;10.738;2022-11-20T00:13:36;1.33;;;0.82;;
74293;SDS011;64044;59.904;10.738;2022-11-20T00:16:03;1.25;;;0.70;;
74293;SDS011;64044;59.904;10.738;2022-11-20T00:18:30;1.13;;;0.40;;
74293;SDS011;64044;59.904;10.738;2022-11-20T00:21:00;0.80;;;0.43;;
74293;SDS011;64044;59.904;10.738;2022-11-20T00:23:27;0.63;;;0.43;;
74293;SDS011;64044;59.904;10.738;2022-11-20T00:25:53;0.98;;;0.40;;
74293;SDS011;64044;59.904;10.738;2022-11-20T00:28:18;1.05;;;0.63;;
74293;SDS011;64044;59.904;10.738;2022-11-20T00:30:44;1.40;;;0.45;;
74293;SDS011;64044;59.904;10.738;2022-11-20T00:33:09;0.55;;;0.40;;
74293;SDS011;64044;59.904;10.738;2022-11-20T00:35:35;1.13;;;0.50;;
74293;SDS011;64044;59.904;10.738;2022-11-20T00:38:01;0.50;;;0.30;;
74293;SDS011;64044;59.904;10.738;2022-11-20T00:40:26;0.52;;;0.47;;
74293;SDS011;64044;59.904;10.738;2022-11-20T00:42:52;1.05;;;0.60;;
74293;SDS011;64044;59.904;10.738;2022-11-20T00:45:17;1.35;;;0.80;;
74293;SDS011;64044;59.904;10.738;2022-11-20T00:47:43;1.25;;;0.75;;
74293;SDS011;64044;59.904;10.738;2022-11-20T00:50:08;3.97;;;0.70;;
74293;SDS011;64044;59.904;10.738;2022-11-20T00:52:34;1.38;;;0.75;;
74293;SDS011;64044;59.904;10.738;2022-11-20T00:55:00;1.48;;;0.52;;
74293;SDS011;64044;59.904;10.738;2022-11-20T00:57:25;0.90;;;0.60;;
74293;SDS011;64044;59.904;10.738;2022-11-20T00:59:51;1.13;;;0.80;;
74293;SDS011;64044;59.904;10.738;2022-11-20T01:02:16;1.88;;;0.88;;
74293;SDS011;64044;59.904;10.738;2022-11-20T01:04:42;1.05;;;0.70;;
74293;SDS011;64044;59.904;10.738;2022-11-20T01:07:08;1.98;;;1.00;;
74293;SDS011;64044;59.904;10.738;2022-11-20T01:09:33;1.45;;;1.13;;
74293;SDS011;64044;59.904;10.738;2022-11-20T01:11:59;2.88;;;1.40;;
74293;SDS011;64044;59.904;10.738;2022-11-20T01:14:25;1.70;;;1.60;;
74293;SDS011;64044;59.904;10.738;2022-11-20T01:16:51;4.55;;;2.60;;
74293;SDS011;64044;59.904;10.738;2022-11-20T01:19:21;4.60;;;3.97;;
74293;SDS011;64044;59.904;10.738;2022-11-20T01:21:49;3.55;;;3.10;;
74293;SDS011;64044;59.904;10.738;2022-11-20T01:24:16;2.65;;;2.45;;
74293;SDS011;64044;59.904;10.738;2022-11-20T01:26:44;2.55;;;2.35;;
74293;SDS011;64044;59.904;10.738;2022-11-20T01:29:16;1.92;;;1.77;;
74293;SDS011;64044;59.904;10.738;2022-11-20T01:31:46;1.80;;;1.70;;
74293;SDS011;64044;59.904;10.738;2022-11-20T01:34:13;2.22;;;2.03;;
74293;SDS011;64044;59.904;10.738;2022-11-20T01:36:41;2.03;;;1.30;;
74293;SDS011;64044;59.904;10.738;2022-11-20T01:39:15;1.50;;;1.40;;
74293;SDS011;64044;59.904;10.738;2022-11-20T01:41:42;1.30;;;1.20;;
74293;SDS011;64044;59.904;10.738;2022-11-20T01:47:34;1.33;;;1.20;;
74293;SDS011;64044;59.904;10.738;2022-11-20T01:52:36;0.30;;;0.30;;
74293;SDS011;64044;59.904;10.738;2022-11-20T01:55:09;1.33;;;0.60;;
74293;SDS011;64044;59.904;10.738;2022-11-20T01:57:42;1.30;;;0.60;;
74293;SDS011;64044;59.904;10.738;2022-11-20T02:00:11;4.05;;;0.40;;
74293;SDS011;64044;59.904;10.738;2022-11-20T02:02:40;0.95;;;0.43;;
74293;SDS011;64044;59.904;10.738;2022-11-20T02:05:14;0.80;;;0.47;;
74293;SDS011;64044;59.904;10.738;2022-11-20T02:07:54;1.13;;;0.70;;
74293;SDS011;64044;59.904;10.738;2022-11-20T02:10:22;1.92;;;0.98;;
74293;SDS011;64044;59.904;10.738;2022-11-20T02:12:48;1.17;;;0.50;;
74293;SDS011;64044;59.904;10.738;2022-11-20T02:15:32;0.57;;;0.47;;
74293;SDS011;64044;59.904;10.738;2022-11-20T02:17:58;0.75;;;0.30;;
74293;SDS011;64044;59.904;10.738;2022-11-20T02:20:24;1.45;;;0.50;;
74293;SDS011;64044;59.904;10.738;2022-11-20T02:22:53;1.75;;;0.52;;
74293;SDS011;64044;59.904;10.738;2022-11-20T02:25:24;1.27;;;0.70;;
74293;SDS011;64044;59.904;10.738;2022-11-20T02:27:51;0.80;;;0.50;;
74293;SDS011;64044;59.904;10.738;2022-11-20T02:30:17;0.85;;;0.32;;
74293;SDS011;64044;59.904;10.738;2022-11-20T02:32:43;0.40;;;0.30;;
74293;SDS011;64044;59.904;10.738;2022-11-20T02:37:55;0.82;;;0.57;;
74293;SDS011;64044;59.904;10.738;2022-11-20T02:40:23;0.70;;;0.32;;
74293;SDS011;64044;59.904;10.738;2022-11-20T02:42:52;0.63;;;0.50;;
74293;SDS011;64044;59.904;10.738;2022-11-20T02:45:19;1.55;;;0.40;;
74293;SDS011;64044;59.904;10.738;2022-11-20T02:47:45;1.10;;;0.38;;
74293;SDS011;64044;59.904;10.738;2022-11-20T02:50:11;1.48;;;0.65;;
74293;SDS011;64044;59.904;10.738;2022-11-20T02:52:36;0.85;;;0.60;;
74293;SDS011;64044;59.904;10.738;2022-11-20T02:55:02;0.70;;;0.60;;
74293;SDS011;64044;59.904;10.738;2022-11-20T02:57:28;0.60;;;0.52;;
74293;SDS011;64044;59.904;10.738;2022-11-20T02:59:54;0.60;;;0.40;;
74293;SDS011;64044;59.904;10.738;2022-11-20T03:02:19;0.63;;;0.32;;
74293;SDS011;64044;59.904;10.738;2022-11-20T03:04:45;0.60;;;0.35;;
74293;SDS011;64044;59.904;10.738;2022-11-20T03:07:11;0.38;;;0.38;;
74293;SDS011;64044;59.904;10.738;2022-11-20T03:09:37;0.85;;;0.52;;
74293;SDS011;64044;59.904;10.738;2022-11-20T03:12:02;2.83;;;0.70;;
74293;SDS011;64044;59.904;10.738;2022-11-20T03:14:28;0.73;;;0.47;;
74293;SDS011;64044;59.904;10.738;2022-11-20T03:16:54;0.63;;;0.47;;
74293;SDS011;64044;59.904;10.738;2022-11-20T03:19:20;0.45;;;0.40;;
74293;SDS011;64044;59.904;10.738;2022-11-20T03:21:46;1.05;;;0.30;;
74293;SDS011;64044;59.904;10.738;2022-11-20T03:24:12;0.85;;;0.50;;
74293;SDS011;64044;59.904;10.738;2022-11-20T03:26:38;0.47;;;0.30;;
74293;SDS011;64044;59.904;10.738;2022-11-20T03:29:04;0.63;;;0.43;;
74293;SDS011;64044;59.904;10.738;2022-11-20T03:31:31;1.75;;;0.75;;
74293;SDS011;64044;59.904;10.738;2022-11-20T03:36:49;0.43;;;0.40;;
74293;SDS011;64044;59.904;10.738;2022-11-20T03:39:15;0.50;;;0.50;;
74293;SDS011;64044;59.904;10.738;2022-11-20T03:41:41;0.55;;;0.40;;
74293;SDS011;64044;59.904;10.738;2022-11-20T03:44:07;0.50;;;0.50;;
74293;SDS011;64044;59.904;10.738;2022-11-20T03:46:35;0.50;;;0.50;;
74293;SDS011;64044;59.904;10.738;2022-11-20T03:49:00;1.10;;;0.43;;
74293;SDS011;64044;59.904;10.738;2022-11-20T03:51:30;2.58;;;0.40;;
74293;SDS011;64044;59.904;10.738;2022-11-20T03:56:29;0.40;;;0.40;;
74293;SDS011;64044;59.904;10.738;2022-11-20T03:58:56;0.75;;;0.30;;
74293;SDS011;64044;59.904;10.738;2022-11-20T04:01:23;0.55;;;0.40;;
74293;SDS011;64044;59.904;10.738;2022-11-20T04:03:51;0.57;;;0.40;;
74293;SDS011;64044;59.904;10.738;2022-11-20T04:06:19;0.90;;;0.40;;
74293;SDS011;64044;59.904;10.738;2022-11-20T04:08:47;0.40;;;0.40;;
74293;SDS011;64044;59.904;10.738;2022-11-20T04:11:23;0.68;;;0.60;;
74293;SDS011;64044;59.904;10.738;2022-11-20T04:13:54;0.32;;;0.30;;
74293;SDS011;64044;59.904;10.738;2022-11-20T04:16:21;0.50;;;0.20;;
74293;SDS011;64044;59.904;10.738;2022-11-20T04:18:51;0.47;;;0.43;;
74293;SDS011;64044;59.904;10.738;2022-11-20T04:21:21;0.47;;;0.40;;
74293;SDS011;64044;59.904;10.738;2022-11-20T04:23:47;0.40;;;0.30;;
74293;SDS011;64044;59.904;10.738;2022-11-20T04:26:13;0.80;;;0.50;;
74293;SDS011;64044;59.904;10.738;2022-11-20T04:28:39;1.55;;;0.60;;
74293;SDS011;64044;59.904;10.738;2022-11-20T04:31:08;1.27;;;0.30;;
74293;SDS011;64044;59.904;10.738;2022-11-20T04:33:35;1.95;;;0.50;;
74293;SDS011;64044;59.904;10.738;2022-11-20T04:36:06;0.30;;;0.30;;
74293;SDS011;64044;59.904;10.738;2022-11-20T04:38:35;0.70;;;0.32;;
74293;SDS011;64044;59.904;10.738;2022-11-20T04:41:01;0.70;;;0.40;;
74293;SDS011;64044;59.904;10.738;2022-11-20T04:43:29;0.50;;;0.30;;
74293;SDS011;64044;59.904;10.738;2022-11-20T04:45:56;0.88;;;0.45;;
74293;SDS011;64044;59.904;10.738;2022-11-20T04:48:23;1.20;;;0.40;;
74293;SDS011;64044;59.904;10.738;2022-11-20T04:50:49;0.60;;;0.45;;
74293;SDS011;64044;59.904;10.738;2022-11-20T04:53:15;0.90;;;0.50;;
74293;SDS011;64044;59.904;10.738;2022-11-20T04:55:40;1.42;;;0.43;;
74293;SDS011;64044;59.904;10.738;2022-11-20T04:58:06;0.77;;;0.40;;
74293;SDS011;64044;59.904;10.738;2022-11-20T05:00:32;0.52;;;0.45;;
74293;SDS011;64044;59.904;10.738;2022-11-20T05:02:57;0.68;;;0.55;;
74293;SDS011;64044;59.904;10.738;2022-11-20T05:05:23;0.50;;;0.40;;
74293;SDS011;64044;59.904;10.738;2022-11-20T05:07:48;1.13;;;0.60;;
74293;SDS011;64044;59.904;10.738;2022-11-20T05:10:14;0.32;;;0.30;;
74293;SDS011;64044;59.904;10.738;2022-11-20T05:12:40;1.83;;;0.80;;
74293;SDS011;64044;59.904;10.738;2022-11-20T05:15:06;0.35;;;0.35;;
74293;SDS011;64044;59.904;10.738;2022-11-20T05:17:32;1.20;;;0.30;;
74293;SDS011;64044;59.904;10.738;2022-11-20T05:19:57;0.43;;;0.30;;
74293;SDS011;64044;59.904;10.738;2022-11-20T05:22:23;0.40;;;0.38;;
74293;SDS011;64044;59.904;10.738;2022-11-20T05:24:49;0.55;;;0.30;;
74293;SDS011;64044;59.904;10.738;2022-11-20T05:27:14;0.30;;;0.30;;
74293;SDS011;64044;59.904;10.738;2022-11-20T05:29:40;0.75;;;0.55;;
74293;SDS011;64044;59.904;10.738;2022-11-20T05:32:06;1.85;;;0.43;;
74293;SDS011;64044;59.904;10.738;2022-11-20T05:34:34;0.82;;;0.35;;
74293;SDS011;64044;59.904;10.738;2022-11-20T05:37:00;0.40;;;0.40;;
74293;SDS011;64044;59.904;10.738;2022-11-20T05:39:26;0.52;;;0.43;;
74293;SDS011;64044;59.904;10.738;2022-11-20T05:41:51;0.75;;;0.50;;
74293;SDS011;64044;59.904;10.738;2022-11-20T05:44:37;1.05;;;0.60;;
74293;SDS011;64044;59.904;10.738;2022-11-20T05:47:02;0.40;;;0.40;;
74293;SDS011;64044;59.904;10.738;2022-11-20T05:49:28;0.35;;;0.35;;
74293;SDS011;64044;59.904;10.738;2022-11-20T05:51:54;0.40;;;0.40;;
74293;SDS011;64044;59.904;10.738;2022-11-20T05:54:19;0.50;;;0.40;;
74293;SDS011;64044;59.904;10.738;2022-11-20T05:56:45;1.58;;;0.70;;
74293;SDS011;64044;59.904;10.738;2022-11-20T05:59:10;0.57;;;0.32;;
74293;SDS011;64044;59.904;10.738;2022-11-20T06:01:36;2.65;;;0.60;;
74293;SDS011;64044;59.904;10.738;2022-11-20T06:04:05;0.90;;;0.50;;
74293;SDS011;64044;59.904;10.738;2022-11-20T06:06:30;2.38;;;0.40;;
74293;SDS011;64044;59.904;10.738;2022-11-20T06:08:56;0.80;;;0.40;;
74293;SDS011;64044;59.904;10.738;2022-11-20T06:11:24;0.60;;;0.50;;
74293;SDS011;64044;59.904;10.738;2022-11-20T06:13:50;1.00;;;0.50;;
74293;SDS011;64044;59.904;10.738;2022-11-20T06:16:17;0.45;;;0.38;;
74293;SDS011;64044;59.904;10.738;2022-11-20T06:18:45;1.27;;;0.50;;
74293;SDS011;64044;59.904;10.738;2022-11-20T06:21:12;1.25;;;0.60;;
74293;SDS011;64044;59.904;10.738;2022-11-20T06:23:41;0.43;;;0.43;;
74293;SDS011;64044;59.904;10.738;2022-11-20T06:26:08;0.50;;;0.40;;
74293;SDS011;64044;59.904;10.738;2022-11-20T06:28:35;0.73;;;0.57;;
74293;SDS011;64044;59.904;10.738;2022-11-20T06:31:01;0.98;;;0.52;;
74293;SDS011;64044;59.904;10.738;2022-11-20T06:33:27;0.30;;;0.30;;
74293;SDS011;64044;59.904;10.738;2022-11-20T06:35:56;1.05;;;0.50;;
74293;SDS011;64044;59.904;10.738;2022-11-20T06:38:23;0.35;;;0.35;;
74293;SDS011;64044;59.904;10.738;2022-11-20T06:40:52;0.70;;;0.40;;
74293;SDS011;64044;59.904;10.738;2022-11-20T06:43:18;0.73;;;0.60;;
74293;SDS011;64044;59.904;10.738;2022-11-20T06:45:43;1.67;;;0.60;;
74293;SDS011;64044;59.904;10.738;2022-11-20T06:48:09;0.73;;;0.55;;
74293;SDS011;64044;59.904;10.738;2022-11-20T06:50:37;0.40;;;0.30;;
74293;SDS011;64044;59.904;10.738;2022-11-20T06:53:03;0.60;;;0.60;;
74293;SDS011;64044;59.904;10.738;2022-11-20T06:55:30;1.23;;;0.63;;
74293;SDS011;64044;59.904;10.738;2022-11-20T06:57:56;0.50;;;0.47;;
74293;SDS011;64044;59.904;10.738;2022-11-20T07:00:22;7.20;;;0.60;;
74293;SDS011;64044;59.904;10.738;2022-11-20T07:02:48;0.75;;;0.60;;
74293;SDS011;64044;59.904;10.738;2022-11-20T07:05:14;1.30;;;0.63;;
74293;SDS011;64044;59.904;10.738;2022-11-20T07:07:40;0.70;;;0.60;;
74293;SDS011;64044;59.904;10.738;2022-11-20T07:10:06;0.60;;;0.60;;
74293;SDS011;64044;59.904;10.738;2022-11-20T07:12:32;0.98;;;0.50;;
74293;SDS011;64044;59.904;10.738;2022-11-20T07:14:57;0.82;;;0.65;;
74293;SDS011;64044;59.904;10.738;2022-11-20T07:17:23;0.60;;;0.43;;
74293;SDS011;64044;59.904;10.738;2022-11-20T07:19:49;0.60;;;0.50;;
74293;SDS011;64044;59.904;10.738;2022-11-20T07:22:14;0.73;;;0.60;;
74293;SDS011;64044;59.904;10.738;2022-11-20T07:24:40;3.20;;;0.93;;
74293;SDS011;64044;59.904;10.738;2022-11-20T07:27:05;0.70;;;0.70;;
74293;SDS011;64044;59.904;10.738;2022-11-20T07:29:31;0.47;;;0.47;;
74293;SDS011;64044;59.904;10.738;2022-11-20T07:31:57;0.65;;;0.60;;
74293;SDS011;64044;59.904;10.738;2022-11-20T07:34:22;1.08;;;0.70;;
74293;SDS011;64044;59.904;10.738;2022-11-20T07:36:48;1.27;;;0.50;;
74293;SDS011;64044;59.904;10.738;2022-11-20T07:39:14;0.60;;;0.60;;
74293;SDS011;64044;59.904;10.738;2022-11-20T07:41:39;0.93;;;0.52;;
74293;SDS011;64044;59.904;10.738;2022-11-20T07:44:05;0.77;;;0.65;;
74293;SDS011;64044;59.904;10.738;2022-11-20T07:46:30;0.93;;;0.60;;
74293;SDS011;64044;59.904;10.738;2022-11-20T07:48:56;0.68;;;0.45;;
74293;SDS011;64044;59.904;10.738;2022-11-20T07:51:22;1.23;;;0.80;;
74293;SDS011;64044;59.904;10.738;2022-11-20T07:53:52;0.85;;;0.52;;
74293;SDS011;64044;59.904;10.738;2022-11-20T07:56:18;0.95;;;0.55;;
74293;SDS011;64044;59.904;10.738;2022-11-20T07:58:43;1.00;;;0.60;;
74293;SDS011;64044;59.904;10.738;2022-11-20T08:01:09;0.65;;;0.60;;
74293;SDS011;64044;59.904;10.738;2022-11-20T08:03:35;0.75;;;0.63;;
74293;SDS011;64044;59.904;10.738;2022-11-20T08:06:04;2.65;;;0.70;;
74293;SDS011;64044;59.904;10.738;2022-11-20T08:08:30;0.50;;;0.50;;
74293;SDS011;64044;59.904;10.738;2022-11-20T08:10:59;0.70;;;0.70;;
74293;SDS011;64044;59.904;10.738;2022-11-20T08:13:43;1.38;;;0.60;;
74293;SDS011;64044;59.904;10.738;2022-11-20T08:16:27;0.70;;;0.65;;
74293;SDS011;64044;59.904;10.738;2022-11-20T08:18:53;1.42;;;0.70;;
74293;SDS011;64044;59.904;10.738;2022-11-20T08:21:19;1.00;;;0.90;;
74293;SDS011;64044;59.904;10.738;2022-11-20T08:23:44;2.00;;;0.98;;
74293;SDS011;64044;59.904;10.738;2022-11-20T08:26:10;0.95;;;0.70;;
74293;SDS011;64044;59.904;10.738;2022-11-20T08:28:36;0.93;;;0.73;;
74293;SDS011;64044;59.904;10.738;2022-11-20T08:31:02;0.63;;;0.60;;
74293;SDS011;64044;59.904;10.738;2022-11-20T08:33:28;1.33;;;0.60;;
74293;SDS011;64044;59.904;10.738;2022-11-20T08:35:58;1.58;;;0.80;;
74293;SDS011;64044;59.904;10.738;2022-11-20T08:38:27;1.17;;;0.75;;
74293;SDS011;64044;59.904;10.738;2022-11-20T08:40:57;0.93;;;0.77;;
74293;SDS011;64044;59.904;10.738;2022-11-20T08:43:42;1.27;;;0.90;;
74293;SDS011;64044;59.904;10.738;2022-11-20T08:46:08;0.68;;;0.68;;
74293;SDS011;64044;59.904;10.738;2022-11-20T08:48:33;5.05;;;1.00;;
74293;SDS011;64044;59.904;10.738;2022-11-20T08:50:59;0.75;;;0.55;;
74293;SDS011;64044;59.904;10.738;2022-11-20T08:53:25;0.77;;;0.77;;
74293;SDS011;64044;59.904;10.738;2022-11-20T08:55:51;3.55;;;0.90;;
74293;SDS011;64044;59.904;10.738;2022-11-20T08:58:17;1.20;;;0.85;;
74293;SDS011;64044;59.904;10.738;2022-11-20T09:00:42;1.25;;;0.90;;
74293;SDS011;64044;59.904;10.738;2022-11-20T09:03:08;3.97;;;1.05;;
74293;SDS011;64044;59.904;10.738;2022-11-20T09:05:34;1.15;;;0.93;;
74293;SDS011;64044;59.904;10.738;2022-11-20T09:07:59;2.22;;;0.90;;
74293;SDS011;64044;59.904;10.738;2022-11-20T09:10:25;1.27;;;0.90;;
74293;SDS011;64044;59.904;10.738;2022-11-20T09:12:52;1.05;;;0.82;;
74293;SDS011;64044;59.904;10.738;2022-11-20T09:15:19;1.33;;;0.93;;
74293;SDS011;64044;59.904;10.738;2022-11-20T09:17:52;1.50;;;0.80;;
74293;SDS011;64044;59.904;10.738;2022-11-20T09:20:23;1.05;;;0.85;;
74293;SDS011;64044;59.904;10.738;2022-11-20T09:22:49;0.93;;;0.50;;
74293;SDS011;64044;59.904;10.738;2022-11-20T09:25:15;1.20;;;0.70;;
74293;SDS011;64044;59.904;10.738;2022-11-20T09:27:41;1.52;;;0.95;;
74293;SDS011;64044;59.904;10.738;2022-11-20T09:30:08;0.68;;;0.47;;
74293;SDS011;64044;59.904;10.738;2022-11-20T09:32:34;1.83;;;0.75;;
74293;SDS011;64044;59.904;10.738;2022-11-20T09:35:00;3.53;;;0.93;;
74293;SDS011;64044;59.904;10.738;2022-11-20T09:37:26;1.10;;;0.75;;
74293;SDS011;64044;59.904;10.738;2022-11-20T09:39:52;1.20;;;0.88;;
74293;SDS011;64044;59.904;10.738;2022-11-20T09:51:33;1.85;;;1.02;;
74293;SDS011;64044;59.904;10.738;2022-11-20T09:54:06;1.75;;;1.00;;
74293;SDS011;64044;59.904;10.738;2022-11-20T09:56:50;2.70;;;1.30;;
74293;SDS011;64044;59.904;10.738;2022-11-20T10:07:58;1.35;;;0.85;;
74293;SDS011;64044;59.904;10.738;2022-11-20T10:13:39;0.50;;;0.40;;
74293;SDS011;64044;59.904;10.738;2022-11-20T10:21:41;0.63;;;0.60;;
74293;SDS011;64044;59.904;10.738;2022-11-20T10:30:15;1.50;;;0.70;;
74293;SDS011;64044;59.904;10.738;2022-11-20T10:32:45;1.45;;;0.85;;
74293;SDS011;64044;59.904;10.738;2022-11-20T10:37:40;1.17;;;0.75;;
74293;SDS011;64044;59.904;10.738;2022-11-20T10:42:41;2.80;;;1.25;;
74293;SDS011;64044;59.904;10.738;2022-11-20T10:45:13;0.65;;;0.57;;
74293;SDS011;64044;59.904;10.738;2022-11-20T10:47:44;0.95;;;0.68;;
74293;SDS011;64044;59.904;10.738;2022-11-20T10:50:11;0.88;;;0.60;;
74293;SDS011;64044;59.904;10.738;2022-11-20T10:55:49;0.63;;;0.47;;
74293;SDS011;64044;59.904;10.738;2022-11-20T10:58:33;1.98;;;0.60;;
74293;SDS011;64044;59.904;10.738;2022-11-20T11:01:16;1.25;;;0.80;;
74293;SDS011;64044;59.904;10.738;2022-11-20T11:03:44;1.23;;;0.60;;
74293;SDS011;64044;59.904;10.738;2022-11-20T11:09:03;1.73;;;1.05;;
74293;SDS011;64044;59.904;10.738;2022-11-20T11:11:37;1.13;;;0.70;;
74293;SDS011;64044;59.904;10.738;2022-11-20T11:14:04;1.10;;;0.60;;
74293;SDS011;64044;59.904;10.738;2022-11-20T11:16:40;1.90;;;0.95;;
74293;SDS011;64044;59.904;10.738;2022-11-20T11:19:18;3.85;;;1.00;;
74293;SDS011;64044;59.904;10.738;2022-11-20T11:21:46;1.10;;;0.80;;
74293;SDS011;64044;59.904;10.738;2022-11-20T11:24:31;1.17;;;0.77;;
74293;SDS011;64044;59.904;10.738;2022-11-20T11:27:00;1.55;;;0.88;;
74293;SDS011;64044;59.904;10.738;2022-11-20T11:29:31;2.03;;;0.93;;
74293;SDS011;64044;59.904;10.738;2022-11-20T11:34:45;1.60;;;1.00;;
74293;SDS011;64044;59.904;10.738;2022-11-20T11:37:24;1.63;;;0.73;;
74293;SDS011;64044;59.904;10.738;2022-11-20T11:39:57;0.98;;;0.75;;
74293;SDS011;64044;59.904;10.738;2022-11-20T11:42:23;1.92;;;0.70;;
74293;SDS011;64044;59.904;10.738;2022-11-20T11:44:49;0.63;;;0.57;;
74293;SDS011;64044;59.904;10.738;2022-11-20T11:47:37;1.65;;;1.05;;
74293;SDS011;64044;59.904;10.738;2022-11-20T11:50:14;1.40;;;0.77;;
74293;SDS011;64044;59.904;10.738;2022-11-20T11:55:40;2.47;;;0.88;;
74293;SDS011;64044;59.904;10.738;2022-11-20T12:03:35;0.80;;;0.70;;
74293;SDS011;64044;59.904;10.738;2022-11-20T12:06:15;1.40;;;0.90;;
74293;SDS011;64044;59.904;10.738;2022-11-20T12:17:01;2.65;;;1.00;;
74293;SDS011;64044;59.904;10.738;2022-11-20T12:19:29;0.93;;;0.70;;
74293;SDS011;64044;59.904;10.738;2022-11-20T12:30:27;1.65;;;0.63;;
74293;SDS011;64044;59.904;10.738;2022-11-20T12:36:58;3.05;;;0.60;;
74293;SDS011;64044;59.904;10.738;2022-11-20T12:39:42;1.42;;;0.60;;
74293;SDS011;64044;59.904;10.738;2022-11-20T12:42:09;1.60;;;0.82;;
74293;SDS011;64044;59.904;10.738;2022-11-20T12:45:13;2.15;;;0.77;;
74293;SDS011;64044;59.904;10.738;2022-11-20T13:02:25;1.05;;;0.77;;
74293;SDS011;64044;59.904;10.738;2022-11-20T13:05:05;1.02;;;0.60;;
74293;SDS011;64044;59.904;10.738;2022-11-20T13:07:52;0.55;;;0.50;;
74293;SDS011;64044;59.904;10.738;2022-11-20T13:10:21;3.30;;;0.75;;
74293;SDS011;64044;59.904;10.738;2022-11-20T13:12:56;3.78;;;0.82;;
74293;SDS011;64044;59.904;10.738;2022-11-20T13:15:42;2.15;;;1.02;;
74293;SDS011;64044;59.904;10.738;2022-11-20T13:18:29;2.03;;;1.08;;
74293;SDS011;64044;59.904;10.738;2022-11-20T13:21:12;0.88;;;0.60;;
74293;SDS011;64044;59.904;10.738;2022-11-20T13:24:03;1.35;;;0.80;;
74293;SDS011;64044;59.904;10.738;2022-11-20T13:26:45;1.35;;;0.55;;
74293;SDS011;64044;59.904;10.738;2022-11-20T13:29:12;2.13;;;0.60;;
74293;SDS011;64044;59.904;10.738;2022-11-20T13:31:46;0.88;;;0.50;;
74293;SDS011;64044;59.904;10.738;2022-11-20T13:34:31;2.58;;;0.95;;
74293;SDS011;64044;59.904;10.738;2022-11-20T13:36:57;0.75;;;0.60;;
74293;SDS011;64044;59.904;10.738;2022-11-20T13:39:29;2.13;;;0.77;;
74293;SDS011;64044;59.904;10.738;2022-11-20T13:42:00;1.48;;;0.70;;
74293;SDS011;64044;59.904;10.738;2022-11-20T13:44:41;1.88;;;0.88;;
74293;SDS011;64044;59.904;10.738;2022-11-20T13:47:24;1.15;;;0.68;;
74293;SDS011;64044;59.904;10.738;2022-11-20T13:49:51;1.13;;;0.80;;
74293;SDS011;64044;59.904;10.738;2022-11-20T14:00:23;2.05;;;1.02;;
74293;SDS011;64044;59.904;10.738;2022-11-20T14:05:40;2.15;;;0.88;;
74293;SDS011;64044;59.904;10.738;2022-11-20T14:08:20;2.15;;;0.80;;
74293;SDS011;64044;59.904;10.738;2022-11-20T14:11:04;1.20;;;0.80;;
74293;SDS011;64044;59.904;10.738;2022-11-20T14:13:37;1.52;;;0.80;;
74293;SDS011;64044;59.904;10.738;2022-11-20T14:18:55;1.95;;;1.20;;
74293;SDS011;64044;59.904;10.738;2022-11-20T14:21:23;1.33;;;0.77;;
74293;SDS011;64044;59.904;10.738;2022-11-20T14:23:52;0.77;;;0.73;;
74293;SDS011;64044;59.904;10.738;2022-11-20T14:26:18;1.60;;;0.80;;
74293;SDS011;64044;59.904;10.738;2022-11-20T14:28:49;1.92;;;1.00;;
74293;SDS011;64044;59.904;10.738;2022-11-20T14:31:28;1.50;;;0.80;;
74293;SDS011;64044;59.904;10.738;2022-11-20T14:33:54;1.83;;;0.70;;
74293;SDS011;64044;59.904;10.738;2022-11-20T14:36:22;1.52;;;0.88;;
74293;SDS011;64044;59.904;10.738;2022-11-20T14:38:50;1.42;;;0.95;;
74293;SDS011;64044;59.904;10.738;2022-11-20T14:41:19;1.90;;;1.02;;
74293;SDS011;64044;59.904;10.738;2022-11-20T14:43:54;2.67;;;1.10;;
74293;SDS011;64044;59.904;10.738;2022-11-20T14:46:24;2.17;;;1.17;;
74293;SDS011;64044;59.904;10.738;2022-11-20T14:48:51;2.25;;;1.40;;
74293;SDS011;64044;59.904;10.738;2022-11-20T14:51:28;2.47;;;1.42;;
74293;SDS011;64044;59.904;10.738;2022-11-20T14:56:40;2.33;;;1.30;;
74293;SDS011;64044;59.904;10.738;2022-11-20T14:59:07;1.92;;;1.25;;
74293;SDS011;64044;59.904;10.738;2022-11-20T15:01:33;4.00;;;1.13;;
74293;SDS011;64044;59.904;10.738;2022-11-20T15:04:12;2.25;;;1.20;;
74293;SDS011;64044;59.904;10.738;2022-11-20T15:06:37;1.48;;;1.05;;
74293;SDS011;64044;59.904;10.738;2022-11-20T15:09:14;4.25;;;1.50;;
74293;SDS011;64044;59.904;10.738;2022-11-20T15:11:40;3.95;;;1.52;;
74293;SDS011;64044;59.904;10.738;2022-11-20T15:14:18;1.83;;;0.90;;
74293;SDS011;64044;59.904;10.738;2022-11-20T15:16:44;3.42;;;1.20;;
74293;SDS011;64044;59.904;10.738;2022-11-20T15:19:15;3.38;;;1.15;;
74293;SDS011;64044;59.904;10.738;2022-11-20T15:21:43;3.15;;;1.95;;
74293;SDS011;64044;59.904;10.738;2022-11-20T15:24:08;2.55;;;1.10;;
74293;SDS011;64044;59.904;10.738;2022-11-20T15:26:35;4.13;;;1.48;;
74293;SDS011;64044;59.904;10.738;2022-11-20T15:29:02;2.20;;;1.17;;
74293;SDS011;64044;59.904;10.738;2022-11-20T15:31:29;2.00;;;1.23;;
74293;SDS011;64044;59.904;10.738;2022-11-20T15:33:54;2.03;;;1.20;;
74293;SDS011;64044;59.904;10.738;2022-11-20T15:36:20;1.80;;;1.05;;
74293;SDS011;64044;59.904;10.738;2022-11-20T15:38:46;3.80;;;1.27;;
74293;SDS011;64044;59.904;10.738;2022-11-20T15:41:11;3.50;;;1.67;;
74293;SDS011;64044;59.904;10.738;2022-11-20T15:43:37;1.67;;;1.23;;
74293;SDS011;64044;59.904;10.738;2022-11-20T15:46:05;2.28;;;1.40;;
74293;SDS011;64044;59.904;10.738;2022-11-20T15:48:36;3.28;;;1.65;;
74293;SDS011;64044;59.904;10.738;2022-11-20T15:53:37;3.33;;;1.30;;
74293;SDS011;64044;59.904;10.738;2022-11-20T15:56:03;1.95;;;1.08;;
74293;SDS011;64044;59.904;10.738;2022-11-20T15:58:29;3.30;;;1.40;;
74293;SDS011;64044;59.904;10.738;2022-11-20T16:00:55;2.47;;;1.52;;
74293;SDS011;64044;59.904;10.738;2022-11-20T16:03:20;1.98;;;1.20;;
74293;SDS011;64044;59.904;10.738;2022-11-20T16:05:46;2.22;;;1.35;;
74293;SDS011;64044;59.904;10.738;2022-11-20T16:08:12;2.55;;;1.23;;
74293;SDS011;64044;59.904;10.738;2022-11-20T16:10:37;2.45;;;1.40;;
74293;SDS011;64044;59.904;10.738;2022-11-20T16:13:03;2.17;;;1.27;;
74293;SDS011;64044;59.904;10.738;2022-11-20T16:15:53;1.58;;;1.20;;
74293;SDS011;64044;59.904;10.738;2022-11-20T16:18:22;2.65;;;1.30;;
74293;SDS011;64044;59.904;10.738;2022-11-20T16:20:49;2.67;;;1.30;;
74293;SDS011;64044;59.904;10.738;2022-11-20T16:23:16;2.03;;;1.13;;
74293;SDS011;64044;59.904;10.738;2022-11-20T16:25:43;7.25;;;1.30;;
74293;SDS011;64044;59.904;10.738;2022-11-20T16:28:09;2.63;;;1.40;;
74293;SDS011;64044;59.904;10.738;2022-11-20T16:30:36;2.88;;;1.33;;
74293;SDS011;64044;59.904;10.738;2022-11-20T16:33:02;2.55;;;1.20;;
74293;SDS011;64044;59.904;10.738;2022-11-20T16:35:31;2.33;;;1.30;;
74293;SDS011;64044;59.904;10.738;2022-11-20T16:37:57;1.83;;;0.90;;
74293;SDS011;64044;59.904;10.738;2022-11-20T16:40:23;1.90;;;1.02;;
74293;SDS011;64044;59.904;10.738;2022-11-20T16:42:49;2.22;;;1.27;;
74293;SDS011;64044;59.904;10.738;2022-11-20T16:45:19;2.88;;;1.50;;
74293;SDS011;64044;59.904;10.738;2022-11-20T16:47:45;2.95;;;1.05;;